Flight Track Log - Related Links

Times and Time Zones

All times are in EDT time to prevent confusion due to time zone crossing. See the EMD21 flight status page for this flight to view local times or setup timezone preferences in your user account.


Time Position Orientation Groundspeed Altitude Reporting Facility
EDT Latitude Longitude Course Direction KTS MPH feet Rate Location/Type
Fri 03:20:04 PM 38.8667 -94.7333 322° Northwest 135 155 1,500  Level Kansas City TRACON
Fri 03:21:10 PM 38.9000 -94.7667 337° Northwest 141 162 3,100 1,455 Climbing Kansas City TRACON
Fri 03:22:16 PM 38.9000 -94.8167 270° West 126 145 4,700 1,489 Climbing Kansas City TRACON
Fri 03:23:27 PM 38.9008 -94.8706 271° West 143 165 6,500 1,534 Climbing Kansas City Center
Fri 03:24:29 PM 38.8594 -94.9011 210° Southwest 153 176 8,100 1,440 Climbing Kansas City Center
Fri 03:25:32 PM 38.8244 -94.9258 209° Southwest 150 173 9,500 1,008 Climbing Kansas City Center
Fri 03:26:34 PM 38.7808 -94.9553 208° Southwest 182 209 10,200 919 Climbing Kansas City Center
Fri 03:27:36 PM 38.7294 -94.9939 210° Southwest 188 216 11,400 1,065 Climbing Kansas City Center
Fri 03:28:38 PM 38.6847 -95.0150 200° South 180 207 12,400 968 Climbing Kansas City Center
Fri 03:29:40 PM 38.6269 -95.0244 187° South 186 214 13,400 919 Climbing Kansas City Center
Fri 03:30:42 PM 38.5811 -95.0353 190° South 176 203 14,300 871 Climbing Kansas City Center
Fri 03:31:44 PM 38.5261 -95.0467 189° South 178 205 15,200 823 Climbing Kansas City Center
Fri 03:32:46 PM 38.4800 -95.0561 189° South 176 203 16,000 387 Climbing Kansas City Center
Fri 03:33:48 PM 38.4181 -95.0703 190° South 201 231 16,000  Level Kansas City Center
Fri 03:34:50 PM 38.3575 -95.0828 189° South 227 261 16,000  Level Kansas City Center
Fri 03:35:52 PM 38.2844 -95.0967 188° South 235 270 16,000  Level Kansas City Center
Fri 03:36:54 PM 38.2217 -95.1131 192° South 238 274 16,000  Level Kansas City Center
Fri 03:37:56 PM 38.1475 -95.1281 189° South 242 278 16,000  Level Kansas City Center
Fri 03:38:58 PM 38.0861 -95.1422 190° South 235 270 16,000  Level Kansas City Center
Fri 03:40:00 PM 38.0225 -95.1542 188° South 239 275 16,000  Level Kansas City Center
Fri 03:41:02 PM 37.9508 -95.1697 190° South 236 272 16,000  Level Kansas City Center
Fri 03:42:04 PM 37.8803 -95.1817 188° South 237 273 16,000  Level Kansas City Center
Fri 03:43:06 PM 37.8164 -95.1981 191° South 235 270 16,000  Level Kansas City Center
Fri 03:44:09 PM 37.7508 -95.2108 189° South 237 273 16,000  Level Kansas City Center
Fri 03:45:11 PM 37.6850 -95.2242 189° South 239 275 16,000 48 Level Kansas City Center
Fri 03:46:13 PM 37.6203 -95.2372 189° South 237 273 16,100 48 Climbing Kansas City Center
Fri 03:47:15 PM 37.5436 -95.2633 195° South 235 270 16,100  Level Kansas City Center
Fri 03:48:17 PM 37.4833 -95.2961 203° Southwest 235 270 16,100  Level Kansas City Center
Fri 03:49:19 PM 37.4225 -95.3231 199° South 233 268 16,100  Level Kansas City Center
Fri 03:50:21 PM 37.3611 -95.3517 200° South 234 269 16,100  Level Kansas City Center
Fri 03:51:23 PM 37.3003 -95.3797 200° South 234 269 16,100  Level Kansas City Center
Fri 03:52:25 PM 37.2386 -95.4094 201° Southwest 235 270 16,100  Level Kansas City Center
Fri 03:53:27 PM 37.1778 -95.4367 200° South 234 269 16,100  Level Kansas City Center
Fri 03:54:29 PM 37.1053 -95.4714 201° Southwest 232 267 16,100 -48 Level Kansas City Center
Fri 03:55:31 PM 37.0433 -95.4983 199° South 234 269 16,000  Descending Kansas City Center
Fri 03:56:33 PM 36.9833 -95.5272 201° Southwest 233 268 16,100  Climbing Kansas City Center
Fri 03:57:35 PM 36.9228 -95.5558 201° Southwest 232 267 16,000 -48 Descending Kansas City Center
Fri 03:58:37 PM 36.8622 -95.5833 200° South 232 267 16,000 48 Level Kansas City Center
Fri 03:59:39 PM 36.7919 -95.6164 201° Southwest 227 261 16,100 48 Climbing Kansas City Center
Fri 04:00:42 PM 36.7328 -95.6431 200° South 226 260 16,100 -48 Level Kansas City Center
Fri 04:01:43 PM 36.6742 -95.6708 201° Southwest 227 261 16,000  Descending Kansas City Center
Fri 04:02:45 PM 36.6167 -95.6975 200° South 224 258 16,100  Climbing Kansas City Center
Fri 04:03:47 PM 36.5594 -95.7236 200° South 224 258 16,000 -58 Descending Kansas City Center
Fri 04:04:29 PM 36.5083 -95.7469 200° South 225 259 16,000  Level Kansas City Center
Fri 04:05:23 PM 36.4539 -95.7725 201° Southwest 225 259 16,000 -417 Level Kansas City Center
Fri 04:06:24 PM 36.3931 -95.7986 199° South 236 272 15,200 -725 Descending Kansas City Center
Fri 04:06:54 PM 36.3619 -95.8000 182° South 238 274 14,900 -689 Descending Kansas City Center
Fri 04:07:25 PM 36.3217 -95.7975 177° South 257 296 14,500 -581 Descending Kansas City Center
Fri 04:07:56 PM 36.2919 -95.7958 177° South 248 285 14,300 -636 Descending Kansas City Center
Fri 04:08:31 PM 36.2461 -95.7944 179° South 253 291 13,800 -625 Descending Kansas City Center
Fri 04:09:32 PM 36.1767 -95.7933 179° South 245 282 13,300 -545 Descending Kansas City Center
Fri 04:10:32 PM 36.1075 -95.7947 181° South 247 284 12,700 -600 Descending Kansas City Center
Fri 04:11:02 PM 36.0722 -95.7925 177° South 248 285 12,400 -457 Descending Kansas City Center
Fri 04:12:04 PM 36.0019 -95.7919 180° South 252 290 12,000 -194 Descending Kansas City Center
Fri 04:13:06 PM 35.9339 -95.7917 180° South 248 285 12,000  Level Kansas City Center
Fri 04:14:08 PM 35.8664 -95.7911 180° South 245 282 12,000 48 Level Kansas City Center
Fri 04:15:10 PM 35.7994 -95.7900 179° South 241 277 12,100 48 Climbing Kansas City Center
Fri 04:16:12 PM 35.7325 -95.7881 179° South 241 277 12,100  Level Kansas City Center
Fri 04:17:14 PM 35.6514 -95.7878 180° South 241 277 12,100 -387 Level Kansas City Center
Fri 04:18:16 PM 35.5842 -95.7889 181° South 241 277 11,300 -823 Descending Kansas City Center
Fri 04:19:18 PM 35.5131 -95.7883 180° South 250 288 10,400 -823 Descending Kansas City Center
Fri 04:20:20 PM 35.4433 -95.7858 178° South 252 290 9,600 -629 Descending Kansas City Center
Fri 04:21:22 PM 35.3781 -95.7850 179° South 241 277 9,100 -242 Descending Kansas City Center
Fri 04:22:24 PM 35.3189 -95.7922 186° South 221 254 9,100 -672 Level Kansas City Center
Fri 04:23:27 PM 35.2500 -95.8044 188° South 218 251 7,700 -1,317 Descending Fort Worth Center
Fri 04:24:27 PM 35.1875 -95.8131 186° South 218 251 6,400 -850 Descending Fort Worth Center
Fri 04:25:27 PM 35.1369 -95.7711 146° Southeast 208 239 6,000 -200 Descending Fort Worth Center
Fri 04:26:27 PM 35.0947 -95.7311 142° Southeast 193 222 6,000  Level Fort Worth Center
Fri 04:27:27 PM 35.0525 -95.6992 148° Southeast 187 215 6,000 -500 Level Fort Worth Center
Fri 04:28:27 PM 35.0656 -95.7369 293° West 83 96 5,000 -500 Descending Fort Worth Center
Fri 04:29:27 PM 35.1194 -95.7131 20° North 70 81 5,000 -50 Level Fort Worth Center
Fri 04:30:27 PM 35.0981 -95.6803 129° Southeast 71 82 4,900  Descending Fort Worth Center
Fri 04:31:27 PM 35.0567 -95.7042 205° Southwest 91 105 5,000 -100 Climbing Fort Worth Center
Fri 04:32:27 PM 35.0153 -95.7228 200° South 129 148 4,700 -700 Descending Fort Worth Center
Fri 04:33:27 PM 34.9758 -95.7411 201° Southwest 150 173 3,600 -1,100 Descending Fort Worth Center
Fri 04:34:27 PM 34.9428 -95.7622 208° Southwest 150 173 2,500 200 Descending Fort Worth Center
Fri 04:35:27 PM 34.9014 -95.7806 200° South 150 173 4,000 1,500 Climbing Fort Worth Center

Login

Don't have an account? Register now (free) for customized features, flight alerts, and more!